Time;durP1;ratioP1;P1;durP2;ratioP2;P2;SDS_P1;SDS_P2;PMS_P1;PMS_P2;Temp;Humidity;BMP_temperature;BMP_pressure;BME280_temperature;BME280_humidity;BME280_pressure;Samples;Min_cycle;Max_cycle;Signal;HPM_P1;HPM_P2
2023/01/14 00:02:26;;;;;;;22.87;10.43;;;4.30;99.90;;;;;;4421310;28;658112;-72
2023/01/14 00:05:13;;;;;;;22.73;11.60;;;4.30;99.90;;;;;;4441940;28;658499;-72
2023/01/14 00:08:01;;;;;;;19.37;10.37;;;4.30;99.90;;;;;;4409904;28;658019;-72
2023/01/14 00:10:48;;;;;;;22.07;11.07;;;4.30;99.90;;;;;;4441324;28;658189;-72
2023/01/14 00:13:37;;;;;;;21.93;10.40;;;4.30;99.90;;;;;;4414189;28;658050;-72
2023/01/14 00:16:25;;;;;;;20.90;11.70;;;4.30;99.90;;;;;;4436944;28;657590;-72
2023/01/14 00:19:12;;;;;;;23.40;12.27;;;4.30;99.90;;;;;;4436427;28;657819;-72
2023/01/14 00:22:00;;;;;;;21.83;11.17;;;4.30;99.90;;;;;;4435874;28;657571;-71
2023/01/14 00:24:47;;;;;;;25.27;12.60;;;4.30;99.90;;;;;;4441671;28;658170;-72
2023/01/14 00:27:35;;;;;;;18.10;10.87;;;4.30;99.90;;;;;;4429855;28;657924;-72
2023/01/14 00:30:24;;;;;;;22.90;11.83;;;4.30;99.90;;;;;;4437956;28;658178;-71
2023/01/14 00:33:11;;;;;;;20.73;11.27;;;4.20;99.90;;;;;;4417927;28;658278;-72
2023/01/14 00:35:58;;;;;;;20.50;10.73;;;4.10;99.90;;;;;;4443240;28;658003;-72
2023/01/14 00:38:45;;;;;;;22.57;10.53;;;4.10;99.90;;;;;;4410546;28;657479;-71
2023/01/14 00:41:33;;;;;;;22.83;10.17;;;4.00;99.90;;;;;;4437409;28;658524;-72
2023/01/14 00:44:20;;;;;;;26.50;11.90;;;4.10;99.90;;;;;;4417737;28;657563;-72
2023/01/14 00:47:09;;;;;;;36.23;17.13;;;4.00;99.90;;;;;;4432436;28;658589;-72
2023/01/14 00:49:56;;;;;;;32.80;16.60;;;4.00;99.90;;;;;;4424064;28;658034;-71
2023/01/14 00:52:43;;;;;;;38.90;17.97;;;3.90;99.90;;;;;;4446630;28;657561;-72
2023/01/14 00:55:31;;;;;;;30.67;16.60;;;3.80;99.90;;;;;;4416348;28;658413;-71
2023/01/14 00:58:18;;;;;;;26.40;13.97;;;3.70;99.90;;;;;;4434518;28;658152;-72
2023/01/14 01:01:05;;;;;;;21.97;12.17;;;3.90;99.90;;;;;;4411166;28;657394;-72
2023/01/14 01:03:55;;;;;;;24.10;12.53;;;3.80;99.90;;;;;;4433346;28;658164;-72
2023/01/14 01:06:42;;;;;;;20.87;11.90;;;3.70;99.90;;;;;;4411041;28;658368;-72
2023/01/14 01:09:29;;;;;;;23.27;12.53;;;3.50;99.90;;;;;;4436291;28;657172;-72
2023/01/14 01:12:16;;;;;;;19.30;10.20;;;3.50;99.90;;;;;;4407041;28;658033;-71
2023/01/14 01:15:04;;;;;;;17.73;9.77;;;3.40;99.90;;;;;;4428347;28;658056;-72
2023/01/14 01:17:51;;;;;;;18.80;9.10;;;3.40;99.90;;;;;;4408193;28;656415;-72
2023/01/14 01:20:40;;;;;;;21.83;10.00;;;3.40;99.90;;;;;;4429700;28;657668;-71
2023/01/14 01:23:27;;;;;;;20.35;9.40;;;3.30;99.90;;;;;;4420640;28;658111;-72
2023/01/14 01:26:15;;;;;;;22.07;10.67;;;3.20;99.90;;;;;;4440417;28;656588;-72
2023/01/14 01:29:04;;;;;;;17.60;9.37;;;3.10;99.90;;;;;;4405098;28;659315;-71
2023/01/14 01:31:51;;;;;;;18.40;8.57;;;3.10;99.90;;;;;;4420097;28;656550;-72
2023/01/14 01:34:38;;;;;;;16.40;8.27;;;3.10;99.90;;;;;;4430217;28;657342;-72
2023/01/14 01:37:27;;;;;;;17.83;9.67;;;3.20;99.90;;;;;;4411185;28;656462;-71
2023/01/14 01:40:14;;;;;;;15.00;8.03;;;3.10;99.90;;;;;;4441201;28;656836;-71
2023/01/14 01:43:02;;;;;;;13.73;7.60;;;3.30;99.90;;;;;;4415845;28;656378;-71
2023/01/14 01:45:49;;;;;;;16.13;8.00;;;3.20;99.90;;;;;;4429073;28;656493;-71
2023/01/14 01:48:38;;;;;;;15.60;8.25;;;3.10;99.90;;;;;;4422624;28;657079;-71
2023/01/14 01:51:27;;;;;;;14.23;7.43;;;3.00;99.90;;;;;;4424501;28;656837;-71
2023/01/14 01:54:15;;;;;;;13.83;8.50;;;3.10;99.90;;;;;;4428160;28;656447;-72
2023/01/14 01:57:03;;;;;;;14.77;8.17;;;2.90;99.90;;;;;;4434416;28;657264;-72
2023/01/14 01:59:53;;;;;;;15.10;8.10;;;2.90;99.90;;;;;;4420759;28;656877;-71
2023/01/14 02:02:40;;;;;;;16.88;8.32;;;3.10;99.90;;;;;;4425633;28;656409;-71
2023/01/14 02:05:28;;;;;;;19.30;8.17;;;3.10;99.90;;;;;;4429570;28;657145;-71
2023/01/14 02:08:15;;;;;;;15.20;8.07;;;3.00;99.90;;;;;;4418163;28;656625;-71
2023/01/14 02:11:16;;;;;;;14.57;7.23;;;3.00;99.90;;;;;;4428792;28;657395;-71
2023/01/14 02:14:08;;;;;;;14.37;8.03;;;3.00;99.90;;;;;;4406876;28;656503;-71
2023/01/14 02:17:01;;;;;;;16.03;8.30;;;3.10;99.90;;;;;;4390959;28;656962;-71
2023/01/14 02:20:03;;;;;;;16.47;7.40;;;3.10;99.90;;;;;;4407268;28;657005;-72
2023/01/14 02:23:04;;;;;;;15.90;7.50;;;3.20;99.90;;;;;;4388205;28;656160;-70
2023/01/14 02:26:09;;;;;;;17.67;7.40;;;3.40;99.90;;;;;;4404343;28;656662;-71
2023/01/14 02:29:32;;;;;;;14.90;8.40;;;3.40;99.90;;;;;;4392303;28;657333;-71
2023/01/14 02:32:21;;;;;;;17.60;8.20;;;3.60;99.90;;;;;;4407158;28;656312;-71
2023/01/14 02:35:14;;;;;;;15.10;8.63;;;3.50;99.90;;;;;;4411289;28;657006;-71
2023/01/14 02:38:13;;;;;;;24.38;9.38;;;3.60;99.90;;;;;;4410511;28;656958;-71
2023/01/14 02:41:06;;;;;;;18.00;9.37;;;3.70;99.90;;;;;;4388183;28;656718;-71
2023/01/14 02:44:10;;;;;;;19.70;9.50;;;3.80;99.90;;;;;;4418220;28;657171;-71
2023/01/14 02:46:59;;;;;;;15.00;8.30;;;3.90;99.90;;;;;;4388604;28;657113;-71
2023/01/14 02:49:47;;;;;;;17.57;10.23;;;4.00;99.90;;;;;;4418440;28;656332;-71
2023/01/14 02:52:35;;;;;;;21.83;10.77;;;4.00;99.90;;;;;;4428335;28;657358;-71
2023/01/14 02:55:28;;;;;;;22.73;11.13;;;4.10;99.90;;;;;;4428404;28;658002;-71
2023/01/14 02:58:40;;;;;;;19.03;10.50;;;4.10;99.90;;;;;;4411631;28;657518;-71
2023/01/14 03:01:36;;;;;;;20.80;10.87;;;4.10;99.90;;;;;;4385862;28;658011;-71
2023/01/14 03:04:36;;;;;;;23.23;11.50;;;4.10;99.90;;;;;;4416541;28;658640;-71
2023/01/14 03:07:24;;;;;;;23.13;12.00;;;4.10;99.90;;;;;;4406058;28;658197;-71
2023/01/14 03:10:15;;;;;;;21.57;11.17;;;4.10;99.90;;;;;;4409980;28;657675;-71
2023/01/14 03:13:07;;;;;;;22.03;11.43;;;4.10;99.90;;;;;;4407968;28;659172;-71
2023/01/14 03:15:56;;;;;;;23.50;11.20;;;4.10;99.90;;;;;;4408090;28;657942;-71
2023/01/14 03:18:45;;;;;;;19.43;9.53;;;4.10;99.90;;;;;;4408129;28;658356;-71
2023/01/14 03:21:35;;;;;;;19.93;10.00;;;4.20;99.90;;;;;;4413511;28;657506;-72
2023/01/14 03:24:24;;;;;;;20.33;10.77;;;4.30;99.90;;;;;;4412643;28;657645;-71
2023/01/14 03:27:18;;;;;;;18.23;10.57;;;4.20;99.90;;;;;;4411894;28;657594;-71
2023/01/14 03:30:08;;;;;;;19.80;10.40;;;4.20;99.90;;;;;;4386704;28;658012;-71
2023/01/14 03:32:57;;;;;;;18.93;10.07;;;4.20;99.90;;;;;;4422348;28;657559;-71
2023/01/14 03:35:45;;;;;;;20.07;11.30;;;4.30;99.90;;;;;;4451226;28;657971;-71
2023/01/14 03:38:34;;;;;;;18.63;10.80;;;4.20;99.90;;;;;;4418495;28;657795;-70
2023/01/14 03:44:25;;;;;;;21.20;10.43;;;4.20;99.90;;;;;;4408510;28;658156;-71
2023/01/14 03:47:13;;;;;;;21.47;9.83;;;4.30;99.90;;;;;;4407397;28;658640;-71
2023/01/14 03:50:01;;;;;;;23.97;11.50;;;4.30;99.90;;;;;;4434682;28;656749;-71
2023/01/14 03:52:55;;;;;;;21.00;10.20;;;4.30;99.90;;;;;;4448166;28;658795;-71
2023/01/14 03:55:48;;;;;;;20.47;10.70;;;4.40;99.90;;;;;;4395488;28;658361;-71
2023/01/14 03:58:40;;;;;;;18.47;9.37;;;4.40;99.90;;;;;;4390473;28;657165;-71
2023/01/14 04:01:30;;;;;;;18.23;9.77;;;4.40;99.90;;;;;;4412708;28;657792;-71
2023/01/14 04:04:18;;;;;;;21.20;10.40;;;4.30;99.90;;;;;;4419153;28;657779;-71
2023/01/14 04:07:06;;;;;;;17.07;9.17;;;4.30;99.90;;;;;;4430826;28;657837;-71
2023/01/14 04:09:53;;;;;;;17.97;8.80;;;4.40;99.90;;;;;;4351670;28;656723;-70
2023/01/14 04:15:20;;;;;;;19.17;9.40;;;4.40;99.90;;;;;;4256109;28;656668;-70
2023/01/14 04:15:48;;;;;;;17.53;8.57;;;4.40;99.90;;;;;;4310550;28;657287;-70
2023/01/14 04:18:35;;;;;;;17.53;8.83;;;4.40;99.90;;;;;;4427238;28;656969;-71
2023/01/14 04:21:23;;;;;;;15.43;8.10;;;4.50;99.90;;;;;;4431307;28;656987;-71
2023/01/14 04:24:10;;;;;;;16.10;7.30;;;4.50;99.90;;;;;;4423529;28;656869;-71
2023/01/14 04:26:58;;;;;;;15.73;8.40;;;4.50;99.90;;;;;;4435368;28;657420;-71
2023/01/14 04:29:47;;;;;;;14.17;7.90;;;4.50;99.90;;;;;;4424469;28;656642;-71
2023/01/14 04:32:34;;;;;;;14.87;8.83;;;4.60;99.90;;;;;;4430874;28;656494;-71
2023/01/14 04:35:21;;;;;;;14.63;7.43;;;4.60;99.90;;;;;;4423867;28;656533;-71
2023/01/14 04:38:08;;;;;;;14.77;7.80;;;4.50;99.90;;;;;;4440552;28;657445;-71
2023/01/14 04:40:55;;;;;;;17.57;7.60;;;4.50;99.90;;;;;;4412004;28;656638;-71
2023/01/14 04:43:42;;;;;;;15.77;7.53;;;4.50;99.90;;;;;;4430670;28;657831;-71
2023/01/14 04:46:30;;;;;;;13.83;6.90;;;4.50;99.90;;;;;;4430791;28;656146;-71
2023/01/14 04:49:17;;;;;;;13.70;6.50;;;4.60;99.90;;;;;;4413084;28;657014;-71
2023/01/14 04:52:05;;;;;;;11.03;5.93;;;4.50;99.90;;;;;;4427810;28;656592;-71
2023/01/14 04:54:53;;;;;;;14.03;6.17;;;4.50;99.90;;;;;;4441857;28;657395;-71
2023/01/14 04:57:40;;;;;;;10.13;5.70;;;4.50;99.90;;;;;;4422283;28;656606;-71
2023/01/14 05:00:27;;;;;;;14.77;6.23;;;4.50;99.90;;;;;;4434650;28;656169;-72
2023/01/14 05:03:17;;;;;;;14.80;6.20;;;4.50;99.90;;;;;;4428556;28;656542;-71
2023/01/14 05:06:04;;;;;;;10.60;6.57;;;4.50;99.90;;;;;;4430375;28;656527;-71
2023/01/14 05:08:51;;;;;;;12.20;6.47;;;4.40;99.90;;;;;;4409222;28;657281;-71
2023/01/14 05:11:39;;;;;;;12.77;6.80;;;4.50;99.90;;;;;;4430561;28;657814;-72
2023/01/14 05:14:26;;;;;;;12.63;6.70;;;4.50;99.90;;;;;;4412934;28;656509;-71
2023/01/14 05:17:14;;;;;;;10.33;6.17;;;4.60;99.90;;;;;;4441587;28;656736;-71
2023/01/14 05:20:02;;;;;;;14.03;6.30;;;4.50;99.90;;;;;;4411659;28;656459;-72
2023/01/14 05:22:50;;;;;;;12.33;6.33;;;4.60;99.90;;;;;;4441918;28;656502;-71
2023/01/14 05:25:37;;;;;;;14.77;6.30;;;4.60;99.90;;;;;;4408764;28;657664;-72
2023/01/14 05:28:24;;;;;;;12.53;6.47;;;4.50;99.90;;;;;;4428870;28;656542;-72
2023/01/14 05:31:11;;;;;;;15.07;6.28;;;4.50;99.90;;;;;;4414612;28;656914;-72
2023/01/14 05:33:59;;;;;;;9.30;5.70;;;4.50;99.90;;;;;;4439649;28;656840;-72
2023/01/14 05:36:48;;;;;;;12.23;5.93;;;4.50;99.90;;;;;;4420497;28;655857;-71
2023/01/14 05:39:35;;;;;;;12.02;5.40;;;4.50;99.90;;;;;;4410451;28;656898;-71
2023/01/14 05:45:41;;;;;;;12.77;5.90;;;4.50;99.90;;;;;;4383985;28;656986;-71
2023/01/14 05:48:28;;;;;;;14.65;6.00;;;4.50;99.90;;;;;;4432170;28;656684;-72
2023/01/14 05:51:15;;;;;;;12.80;5.80;;;4.50;99.90;;;;;;4410919;28;656793;-72
2023/01/14 05:54:05;;;;;;;16.83;6.07;;;4.40;99.90;;;;;;4430072;28;657483;-72
2023/01/14 05:56:53;;;;;;;15.77;6.67;;;4.50;99.90;;;;;;4411950;28;657164;-72
2023/01/14 05:59:40;;;;;;;14.23;6.47;;;4.50;99.90;;;;;;4418598;28;657110;-71
2023/01/14 06:08:37;;;;;;;17.00;5.60;;;4.40;99.90;;;;;;4411124;28;656972;-72
2023/01/14 06:11:26;;;;;;;13.93;6.43;;;4.40;99.90;;;;;;4429214;28;656475;-72
2023/01/14 06:14:14;;;;;;;12.60;6.23;;;4.40;99.90;;;;;;4407494;28;656903;-72
2023/01/14 06:17:04;;;;;;;11.93;6.10;;;4.40;99.90;;;;;;4426614;28;656657;-71
2023/01/14 06:19:52;;;;;;;16.97;6.10;;;4.40;99.90;;;;;;4422021;28;656979;-72
2023/01/14 06:22:39;;;;;;;10.87;5.73;;;4.40;99.90;;;;;;4432432;28;656245;-72
2023/01/14 06:25:26;;;;;;;19.27;7.10;;;4.40;99.90;;;;;;4411650;28;656722;-72
2023/01/14 06:28:15;;;;;;;17.73;7.40;;;4.40;99.90;;;;;;4429293;28;657943;-73
2023/01/14 06:31:02;;;;;;;13.47;6.40;;;4.40;99.90;;;;;;4406487;28;657769;-72
2023/01/14 06:33:49;;;;;;;13.80;6.50;;;4.20;99.90;;;;;;4433327;28;656768;-72
2023/01/14 06:36:37;;;;;;;14.77;5.93;;;4.20;99.90;;;;;;4410542;28;656908;-72
2023/01/14 06:39:25;;;;;;;13.60;6.43;;;4.20;99.90;;;;;;4429066;28;656952;-72
2023/01/14 06:42:12;;;;;;;15.37;7.13;;;4.20;99.90;;;;;;4429207;28;656846;-72
2023/01/14 06:45:02;;;;;;;20.67;8.07;;;4.30;99.90;;;;;;4428446;28;656462;-72
2023/01/14 06:47:49;;;;;;;15.07;7.37;;;4.20;99.90;;;;;;4435927;28;656600;-72
2023/01/14 06:50:36;;;;;;;18.50;8.00;;;4.10;99.90;;;;;;4424210;28;656445;-72
2023/01/14 06:53:23;;;;;;;16.58;7.50;;;4.10;99.90;;;;;;4444766;28;657183;-73
2023/01/14 06:56:12;;;;;;;17.20;8.53;;;4.20;99.90;;;;;;4424001;28;656776;-72
2023/01/14 06:58:59;;;;;;;18.60;8.20;;;4.10;99.90;;;;;;4443164;28;656235;-73
2023/01/14 07:01:47;;;;;;;18.30;8.10;;;4.20;99.90;;;;;;4414081;28;656701;-72
2023/01/14 07:04:35;;;;;;;20.87;8.30;;;4.20;99.90;;;;;;4429609;28;657395;-72
2023/01/14 07:07:22;;;;;;;15.23;7.20;;;4.30;99.90;;;;;;4437164;28;655847;-72
2023/01/14 07:10:11;;;;;;;20.23;8.77;;;4.30;99.90;;;;;;4431092;28;656441;-72
2023/01/14 07:12:58;;;;;;;19.83;9.10;;;4.20;99.90;;;;;;4433757;28;656836;-72
2023/01/14 07:15:46;;;;;;;19.50;10.55;;;4.20;99.90;;;;;;4425039;28;656852;-72
2023/01/14 07:18:34;;;;;;;20.90;10.43;;;4.10;99.90;;;;;;4441062;28;658406;-72
2023/01/14 07:21:22;;;;;;;15.20;7.53;;;4.20;99.90;;;;;;4413019;28;657829;-72
2023/01/14 07:24:09;;;;;;;14.07;7.20;;;4.30;99.90;;;;;;4436878;28;656791;-72
2023/01/14 07:26:56;;;;;;;16.07;7.50;;;4.30;99.90;;;;;;4411815;28;656516;-72
2023/01/14 07:29:43;;;;;;;16.00;6.90;;;4.30;99.90;;;;;;4431954;28;657135;-73
2023/01/14 07:32:32;;;;;;;12.47;6.93;;;4.40;99.90;;;;;;4413425;28;656313;-72
2023/01/14 07:35:21;;;;;;;19.38;7.55;;;4.40;99.90;;;;;;4435435;28;656623;-72
2023/01/14 07:38:08;;;;;;;19.00;7.97;;;4.40;99.90;;;;;;4408333;28;656954;-72
2023/01/14 07:40:57;;;;;;;15.70;7.67;;;4.40;99.90;;;;;;4417463;28;656851;-72
2023/01/14 07:43:44;;;;;;;23.70;8.40;;;4.50;99.90;;;;;;4437519;28;657294;-73
2023/01/14 07:46:32;;;;;;;18.60;7.65;;;4.60;99.90;;;;;;4419882;28;657138;-72
2023/01/14 07:49:19;;;;;;;15.03;7.87;;;4.60;99.90;;;;;;4438919;28;656403;-72
2023/01/14 07:52:12;;;;;;;13.27;6.67;;;4.80;99.90;;;;;;4414372;28;656585;-72
2023/01/14 07:54:59;;;;;;;20.20;8.20;;;4.80;99.90;;;;;;4409001;28;657052;-72
2023/01/14 07:57:46;;;;;;;17.50;7.43;;;4.80;99.90;;;;;;4410900;28;656498;-72
2023/01/14 08:00:34;;;;;;;18.43;8.33;;;5.00;99.90;;;;;;4431805;28;657940;-73
2023/01/14 08:03:21;;;;;;;13.07;7.47;;;5.10;99.90;;;;;;4436882;28;656738;-72
2023/01/14 08:06:08;;;;;;;20.77;7.83;;;5.30;99.90;;;;;;4433658;28;656586;-72
2023/01/14 08:08:58;;;;;;;16.70;8.07;;;5.40;99.90;;;;;;4412143;28;656662;-72
2023/01/14 08:11:45;;;;;;;15.13;7.38;;;5.40;99.90;;;;;;4412731;28;656940;-72
2023/01/14 08:14:32;;;;;;;14.27;7.23;;;5.30;99.90;;;;;;4443880;28;657426;-72
2023/01/14 08:17:20;;;;;;;16.17;8.00;;;5.40;99.90;;;;;;4425873;28;656314;-72
2023/01/14 08:20:08;;;;;;;14.70;7.50;;;5.30;99.90;;;;;;4431116;28;658024;-72
2023/01/14 08:22:57;;;;;;;18.57;8.53;;;5.30;99.90;;;;;;4424339;28;656590;-72
2023/01/14 08:25:47;;;;;;;16.10;7.47;;;5.20;99.90;;;;;;4430654;28;657062;-72
2023/01/14 08:28:34;;;;;;;18.13;7.87;;;5.10;99.90;;;;;;4431981;28;656168;-72
2023/01/14 08:31:22;;;;;;;17.03;8.43;;;5.10;99.90;;;;;;4408782;28;656673;-72
2023/01/14 08:34:09;;;;;;;21.00;8.60;;;4.90;99.90;;;;;;4434186;28;656606;-72
2023/01/14 08:36:56;;;;;;;21.97;8.70;;;5.00;99.90;;;;;;4421726;28;656381;-72
2023/01/14 08:39:44;;;;;;;15.90;8.30;;;5.10;99.90;;;;;;4430420;28;656527;-72
2023/01/14 08:42:32;;;;;;;20.33;8.63;;;5.20;99.90;;;;;;4411004;28;656812;-72
2023/01/14 08:45:19;;;;;;;17.83;8.77;;;5.30;99.90;;;;;;4446549;28;656192;-72
2023/01/14 08:48:07;;;;;;;20.87;7.43;;;5.30;99.90;;;;;;4421091;28;657323;-72
2023/01/14 08:50:54;;;;;;;17.37;8.50;;;5.40;99.90;;;;;;4446692;28;656587;-72
2023/01/14 08:53:41;;;;;;;21.43;9.37;;;5.30;99.90;;;;;;4417046;28;656466;-72
2023/01/14 08:56:29;;;;;;;18.93;9.17;;;5.40;99.90;;;;;;4435690;28;656562;-72
2023/01/14 08:59:17;;;;;;;19.87;8.93;;;5.60;99.90;;;;;;4411774;28;656696;-72
2023/01/14 09:02:04;;;;;;;16.97;8.47;;;5.60;99.90;;;;;;4430705;28;656626;-72
2023/01/14 09:04:52;;;;;;;16.63;9.00;;;5.60;99.90;;;;;;4415592;28;657948;-72
2023/01/14 09:17:06;;;;;;;18.30;7.77;;;6.00;99.90;;;;;;4385224;28;657167;-72
2023/01/14 09:19:54;;;;;;;13.53;6.60;;;6.00;99.90;;;;;;4411593;28;656148;-72
2023/01/14 09:22:41;;;;;;;16.50;6.60;;;6.00;99.90;;;;;;4423362;28;656854;-72
2023/01/14 09:25:29;;;;;;;18.00;7.73;;;6.10;99.90;;;;;;4442807;28;657444;-72
2023/01/14 09:28:16;;;;;;;15.70;7.27;;;6.20;99.90;;;;;;4421464;28;656982;-72
2023/01/14 09:31:03;;;;;;;20.67;7.43;;;6.20;99.90;;;;;;4434254;28;656866;-72
2023/01/14 09:33:52;;;;;;;16.53;6.33;;;6.50;99.90;;;;;;4410098;28;656378;-71
2023/01/14 09:36:39;;;;;;;12.93;6.13;;;6.60;99.90;;;;;;4429778;28;656660;-72
2023/01/14 09:39:26;;;;;;;15.23;6.00;;;6.70;99.90;;;;;;4410841;28;656527;-72
2023/01/14 09:42:15;;;;;;;10.80;5.50;;;7.10;99.90;;;;;;4432310;28;656621;-72
2023/01/14 09:45:07;;;;;;;13.53;5.97;;;6.80;99.90;;;;;;4422440;28;657389;-72
2023/01/14 09:47:55;;;;;;;11.80;4.83;;;7.40;99.90;;;;;;4411772;28;657140;-72
2023/01/14 09:50:50;;;;;;;10.37;4.30;;;7.90;99.90;;;;;;4419876;28;656701;-72
2023/01/14 09:53:50;;;;;;;12.97;4.97;;;8.20;99.90;;;;;;4384216;28;656700;-72
2023/01/14 09:56:39;;;;;;;12.70;4.80;;;7.90;99.90;;;;;;4432642;28;656070;-72
2023/01/14 09:59:30;;;;;;;11.93;4.93;;;8.40;99.90;;;;;;4418360;28;657679;-72
2023/01/14 10:02:19;;;;;;;10.93;4.63;;;8.90;99.90;;;;;;4411371;28;657973;-72
2023/01/14 10:05:16;;;;;;;9.13;3.50;;;9.00;99.90;;;;;;4407272;28;657537;-72
2023/01/14 10:08:06;;;;;;;9.23;4.40;;;9.40;99.90;;;;;;4408706;28;655408;-72
2023/01/14 10:10:53;;;;;;;10.87;4.03;;;9.80;99.90;;;;;;4258178;28;656526;-71
2023/01/14 10:13:42;;;;;;;11.37;3.27;;;9.60;99.90;;;;;;4245892;28;656457;-71
2023/01/14 10:16:31;;;;;;;9.50;3.10;;;10.10;99.90;;;;;;4372663;28;657030;-72
2023/01/14 10:19:21;;;;;;;10.30;3.70;;;9.60;99.90;;;;;;4416996;28;656754;-71
2023/01/14 10:22:13;;;;;;;12.70;4.30;;;9.20;99.90;;;;;;4405722;28;657179;-72
2023/01/14 10:25:04;;;;;;;8.47;3.40;;;8.60;99.90;;;;;;4415916;28;656462;-71
2023/01/14 10:27:53;;;;;;;12.60;3.87;;;8.90;99.90;;;;;;4413070;28;655587;-71
2023/01/14 10:30:40;;;;;;;12.30;3.50;;;8.70;99.90;;;;;;4412266;28;656543;-71
2023/01/14 10:33:28;;;;;;;9.43;3.50;;;8.50;99.90;;;;;;4446375;28;657763;-72
2023/01/14 10:36:17;;;;;;;8.53;3.40;;;9.30;99.90;;;;;;4425419;28;655872;-71
2023/01/14 10:39:06;;;;;;;8.83;3.47;;;9.20;99.90;;;;;;4431017;28;655550;-71
2023/01/14 10:42:00;;;;;;;6.00;2.93;;;10.00;99.90;;;;;;4410701;28;656336;-71
2023/01/14 10:44:48;;;;;;;11.40;3.77;;;8.90;99.90;;;;;;4410319;28;656367;-71
2023/01/14 10:47:35;;;;;;;8.90;3.67;;;9.40;99.90;;;;;;4414555;28;656377;-71
2023/01/14 10:50:23;;;;;;;7.27;3.37;;;9.50;99.90;;;;;;4444762;28;655724;-71
2023/01/14 10:53:21;;;;;;;11.67;3.87;;;8.90;99.90;;;;;;4410828;28;655433;-71
2023/01/14 10:56:08;;;;;;;10.70;3.83;;;9.60;99.90;;;;;;4406590;28;657073;-71
2023/01/14 10:58:57;;;;;;;13.97;4.33;;;9.70;99.90;;;;;;4410849;28;656887;-71
2023/01/14 11:01:44;;;;;;;9.20;3.40;;;9.40;99.90;;;;;;4428637;28;657370;-71
2023/01/14 11:04:32;;;;;;;7.80;3.07;;;9.50;99.90;;;;;;4411448;28;655717;-71
2023/01/14 11:07:24;;;;;;;10.27;4.07;;;10.00;99.90;;;;;;4437449;28;656264;-70
2023/01/14 11:10:17;;;;;;;8.17;3.33;;;9.80;99.90;;;;;;4419432;28;657886;-70
2023/01/14 11:13:24;;;;;;;13.50;5.13;;;8.50;99.90;;;;;;4423867;28;655395;-70
2023/01/14 11:16:29;;;;;;;10.30;3.80;;;8.10;99.90;;;;;;4396035;28;656562;-70
2023/01/14 11:19:21;;;;;;;10.23;3.90;;;8.00;99.90;;;;;;4416052;28;657043;-70
2023/01/14 11:22:09;;;;;;;10.70;3.47;;;7.60;99.90;;;;;;4406862;28;657650;-70
2023/01/14 11:24:57;;;;;;;11.97;3.97;;;7.70;99.90;;;;;;4410608;28;656308;-70
2023/01/14 11:27:46;;;;;;;10.13;4.27;;;8.10;99.90;;;;;;4429581;28;656755;-70
2023/01/14 11:30:33;;;;;;;8.23;3.90;;;8.20;99.90;;;;;;4417399;28;657829;-70
2023/01/14 11:33:23;;;;;;;11.87;4.60;;;7.70;99.90;;;;;;4421808;28;655526;-70
2023/01/14 11:36:10;;;;;;;12.07;4.67;;;7.40;99.90;;;;;;4425189;28;656409;-70
2023/01/14 11:38:58;;;;;;;16.53;4.80;;;7.70;99.90;;;;;;4436210;28;656813;-70
2023/01/14 11:41:45;;;;;;;18.00;5.70;;;7.60;99.90;;;;;;4411731;28;657191;-70
2023/01/14 11:44:33;;;;;;;23.40;8.20;;;8.20;99.90;;;;;;4431423;28;657817;-70
2023/01/14 11:47:22;;;;;;;11.43;4.90;;;9.30;99.90;;;;;;4421074;28;656581;-71
2023/01/14 11:50:17;;;;;;;13.33;4.90;;;9.70;99.90;;;;;;4441115;28;656828;-70
2023/01/14 11:53:05;;;;;;;10.97;4.20;;;10.60;99.90;;;;;;4430839;28;656542;-70
2023/01/14 11:55:54;;;;;;;11.40;4.10;;;11.70;99.90;;;;;;4407311;28;658518;-70
2023/01/14 11:58:41;;;;;;;14.20;3.80;;;12.30;99.80;;;;;;4410773;28;657926;-70
2023/01/14 12:01:31;;;;;;;16.20;6.73;;;12.30;98.40;;;;;;4429657;28;657826;-70
2023/01/14 12:04:21;;;;;;;17.40;6.20;;;12.40;95.40;;;;;;4407452;28;657662;-70
2023/01/14 12:07:11;;;;;;;7.43;3.60;;;12.90;94.40;;;;;;4407103;28;658012;-70
2023/01/14 12:09:59;;;;;;;13.87;4.30;;;12.10;93.70;;;;;;4409011;28;658169;-70
2023/01/14 12:19:04;;;;;;;10.67;4.50;;;11.30;95.50;;;;;;4391577;28;656991;-70
2023/01/14 12:21:54;;;;;;;10.30;3.47;;;11.80;97.60;;;;;;4418823;28;657835;-70
2023/01/14 12:24:49;;;;;;;9.60;4.00;;;12.00;93.70;;;;;;4407851;28;657632;-70
2023/01/14 12:27:43;;;;;;;12.37;5.00;;;12.00;95.00;;;;;;4384523;28;657515;-70
2023/01/14 12:30:38;;;;;;;13.50;4.80;;;12.60;92.60;;;;;;4421930;28;657439;-70
2023/01/14 12:33:29;;;;;;;12.43;4.67;;;11.90;93.10;;;;;;4385533;28;657521;-70
2023/01/14 12:36:19;;;;;;;13.80;4.47;;;11.60;96.70;;;;;;4417332;28;658498;-70
2023/01/14 12:45:45;;;;;;;11.67;4.53;;;13.90;90.20;;;;;;4421981;28;658405;-70
2023/01/14 12:48:32;;;;;;;10.53;4.40;;;13.30;87.20;;;;;;4414814;28;657479;-69
2023/01/14 12:51:21;;;;;;;12.50;4.50;;;13.00;87.20;;;;;;4429900;28;657942;-69
2023/01/14 12:54:09;;;;;;;11.73;3.07;;;11.60;91.90;;;;;;4406720;28;658654;-70
2023/01/14 12:56:57;;;;;;;10.43;4.30;;;12.00;89.10;;;;;;4417944;28;657878;-69
2023/01/14 12:59:50;;;;;;;11.37;4.20;;;11.00;92.40;;;;;;4439277;28;657582;-70
2023/01/14 13:02:39;;;;;;;13.83;3.90;;;10.80;93.70;;;;;;4391635;28;658213;-69
2023/01/14 13:05:28;;;;;;;14.17;4.73;;;9.80;99.50;;;;;;4410672;28;657219;-69
2023/01/14 13:08:20;;;;;;;13.87;4.10;;;9.50;99.90;;;;;;4424786;28;656407;-69
2023/01/14 13:11:11;;;;;;;12.93;4.10;;;10.20;99.90;;;;;;4407391;28;657748;-69
2023/01/14 13:13:59;;;;;;;10.30;3.40;;;10.40;99.90;;;;;;4406701;28;657800;-70
2023/01/14 13:16:47;;;;;;;14.87;4.50;;;11.20;97.90;;;;;;4409640;28;658042;-69
2023/01/14 13:19:49;;;;;;;10.93;4.27;;;11.70;92.20;;;;;;4424435;28;657727;-69
2023/01/14 13:22:43;;;;;;;17.30;5.03;;;10.70;97.10;;;;;;4423186;28;657278;-69
2023/01/14 13:25:34;;;;;;;13.10;4.60;;;11.10;94.60;;;;;;4406681;28;657662;-69
2023/01/14 13:28:33;;;;;;;17.17;4.87;;;11.80;92.70;;;;;;4420269;28;657653;-69
2023/01/14 13:31:32;;;;;;;12.27;4.00;;;11.50;93.30;;;;;;4395443;28;657529;-69
2023/01/14 13:35:02;;;;;;;11.17;3.97;;;12.20;91.50;;;;;;4424618;28;657360;-69
2023/01/14 13:37:50;;;;;;;7.40;3.70;;;13.40;88.90;;;;;;4429006;28;657346;-69
2023/01/14 13:40:38;;;;;;;11.80;3.97;;;13.50;82.10;;;;;;4407475;28;656948;-69
2023/01/14 13:43:26;;;;;;;8.00;3.50;;;13.10;82.80;;;;;;4421140;28;657425;-69
2023/01/14 13:46:18;;;;;;;11.63;3.70;;;13.30;80.40;;;;;;4429967;28;656168;-69
2023/01/14 13:49:07;;;;;;;7.60;3.13;;;13.40;80.60;;;;;;4398676;28;657575;-69
2023/01/14 13:51:58;;;;;;;8.80;3.27;;;14.10;74.80;;;;;;4435380;28;657444;-69
2023/01/14 13:54:47;;;;;;;8.33;3.00;;;14.60;71.70;;;;;;4394055;28;656507;-69
2023/01/14 13:57:36;;;;;;;11.17;2.93;;;14.20;69.10;;;;;;4433059;28;656519;-69
2023/01/14 14:00:37;;;;;;;14.48;4.13;;;14.00;70.20;;;;;;4409809;28;658392;-69
2023/01/14 14:03:35;;;;;;;7.90;2.60;;;13.50;72.20;;;;;;4405726;28;657742;-69
2023/01/14 14:06:44;;;;;;;10.00;3.33;;;12.20;73.80;;;;;;4383693;28;658047;-69
2023/01/14 14:09:32;;;;;;;10.33;3.20;;;12.30;75.10;;;;;;4398961;28;657287;-69
2023/01/14 14:15:30;;;;;;;9.23;3.67;;;10.90;80.20;;;;;;4416845;28;656686;-69
2023/01/14 14:18:23;;;;;;;9.33;3.17;;;11.10;81.40;;;;;;4428125;28;657243;-69
2023/01/14 14:21:14;;;;;;;7.43;2.80;;;11.00;82.50;;;;;;4425098;28;656462;-69
2023/01/14 14:24:02;;;;;;;8.97;3.67;;;11.40;82.90;;;;;;4412009;28;657017;-69
2023/01/14 14:26:50;;;;;;;11.13;3.83;;;11.70;81.30;;;;;;4440513;28;656523;-69
2023/01/14 14:29:40;;;;;;;11.73;3.85;;;10.90;81.10;;;;;;4413596;28;658553;-68
2023/01/14 14:32:28;;;;;;;8.90;3.33;;;10.50;83.80;;;;;;4410778;28;657705;-68
2023/01/14 14:35:16;;;;;;;14.57;4.23;;;9.70;89.10;;;;;;4427888;28;656910;-69
2023/01/14 14:38:03;;;;;;;8.07;3.60;;;8.80;93.80;;;;;;4429045;28;657303;-69
2023/01/14 14:40:50;;;;;;;10.87;3.53;;;8.50;97.50;;;;;;4411142;28;656264;-69
2023/01/14 14:43:38;;;;;;;11.40;3.77;;;8.30;99.90;;;;;;4441002;28;657092;-68
2023/01/14 14:46:27;;;;;;;11.97;4.40;;;8.00;99.90;;;;;;4419722;28;656792;-68
2023/01/14 14:49:21;;;;;;;10.80;3.90;;;7.80;99.90;;;;;;4436324;28;655885;-69
2023/01/14 14:52:12;;;;;;;12.57;4.23;;;7.40;99.90;;;;;;4406857;28;657480;-68
2023/01/14 14:55:05;;;;;;;10.07;4.30;;;7.10;99.90;;;;;;4406245;28;656829;-69
2023/01/14 14:57:52;;;;;;;15.60;4.17;;;6.90;99.90;;;;;;4394973;28;656481;-69
2023/01/14 15:00:40;;;;;;;12.90;4.23;;;6.70;99.90;;;;;;4429321;28;656427;-69
2023/01/14 15:03:30;;;;;;;11.43;4.10;;;6.50;99.90;;;;;;4433584;28;656790;-69
2023/01/14 15:06:17;;;;;;;10.13;3.70;;;6.30;99.90;;;;;;4410270;28;657284;-69